createdAt,value
2024-02-07T00:02:12.595Z,100.00
2024-02-07T00:04:39.695Z,100.00
2024-02-07T00:07:06.722Z,100.00
2024-02-07T00:09:33.649Z,100.00
2024-02-07T00:12:00.516Z,100.00
2024-02-07T00:14:27.445Z,100.00
2024-02-07T00:16:57.181Z,100.00
2024-02-07T00:19:24.454Z,100.00
2024-02-07T00:21:51.619Z,100.00
2024-02-07T00:24:18.554Z,100.00
2024-02-07T00:26:45.442Z,100.00
2024-02-07T00:29:12.533Z,100.00
2024-02-07T00:31:40.239Z,100.00
2024-02-07T00:34:07.235Z,100.00
2024-02-07T00:36:34.215Z,100.00
2024-02-07T00:39:01.036Z,100.00
2024-02-07T00:41:28.046Z,100.00
2024-02-07T00:43:55.067Z,100.00
2024-02-07T00:46:22.127Z,100.00
2024-02-07T00:48:49.269Z,100.00
2024-02-07T00:51:16.190Z,100.00
2024-02-07T00:53:43.273Z,100.00
2024-02-07T00:56:10.332Z,100.00
2024-02-07T00:58:37.271Z,100.00
2024-02-07T01:01:05.055Z,100.00
2024-02-07T01:03:32.996Z,100.00
2024-02-07T01:06:00.373Z,100.00
2024-02-07T01:08:27.333Z,100.00
2024-02-07T01:10:54.480Z,100.00
2024-02-07T01:13:21.519Z,100.00
2024-02-07T01:15:48.644Z,100.00
2024-02-07T01:18:15.833Z,100.00
2024-02-07T01:20:42.923Z,100.00
2024-02-07T01:23:10.307Z,100.00
2024-02-07T01:25:37.213Z,100.00
2024-02-07T01:28:04.445Z,100.00
2024-02-07T01:30:31.513Z,100.00
2024-02-07T01:32:58.426Z,100.00
2024-02-07T01:35:27.831Z,100.00
2024-02-07T01:37:54.753Z,100.00
2024-02-07T01:40:22.826Z,100.00
2024-02-07T01:42:50.167Z,100.00
2024-02-07T01:45:32.760Z,100.00
2024-02-07T01:47:59.777Z,100.00
2024-02-07T01:50:26.823Z,100.00
2024-02-07T01:52:55.494Z,100.00
2024-02-07T01:55:22.638Z,100.00
2024-02-07T01:57:52.341Z,100.00
2024-02-07T02:00:19.255Z,100.00
2024-02-07T02:02:46.248Z,100.00
2024-02-07T02:05:13.110Z,100.00
2024-02-07T02:07:40.417Z,100.00
2024-02-07T02:10:07.519Z,100.00
2024-02-07T02:12:34.691Z,100.00
2024-02-07T02:15:01.579Z,100.00
2024-02-07T02:17:28.452Z,100.00
2024-02-07T02:19:55.708Z,100.00
2024-02-07T02:22:32.117Z,100.00
2024-02-07T02:25:08.274Z,100.00
2024-02-07T02:28:18.971Z,100.00
2024-02-07T02:30:52.341Z,100.00
2024-02-07T02:33:20.117Z,100.00
2024-02-07T02:35:50.379Z,100.00
2024-02-07T02:38:19.642Z,100.00
2024-02-07T02:40:48.365Z,100.00
2024-02-07T02:43:15.536Z,100.00
2024-02-07T02:45:42.920Z,100.00
2024-02-07T02:48:12.618Z,100.00
2024-02-07T02:50:40.886Z,100.00
2024-02-07T02:53:08.114Z,100.00
2024-02-07T02:55:35.311Z,100.00
2024-02-07T02:58:02.344Z,100.00
2024-02-07T03:00:29.524Z,100.00
2024-02-07T03:02:59.398Z,100.00
2024-02-07T03:05:46.756Z,100.00
2024-02-07T03:08:22.674Z,100.00
2024-02-07T03:10:53.061Z,100.00
2024-02-07T03:13:20.110Z,100.00
2024-02-07T03:15:46.989Z,100.00
2024-02-07T03:18:14.312Z,100.00
2024-02-07T03:20:42.335Z,100.00
2024-02-07T03:23:09.645Z,100.00
2024-02-07T03:25:38.089Z,100.00
2024-02-07T03:28:06.157Z,100.00
2024-02-07T03:30:33.273Z,100.00
2024-02-07T03:33:00.242Z,100.00
2024-02-07T03:35:27.818Z,100.00
2024-02-07T03:37:56.486Z,100.00
2024-02-07T03:40:23.578Z,100.00
2024-02-07T03:42:51.397Z,100.00
2024-02-07T03:45:18.347Z,100.00
2024-02-07T03:47:45.467Z,100.00
2024-02-07T03:50:13.177Z,100.00
2024-02-07T03:52:40.751Z,100.00
2024-02-07T03:55:07.925Z,100.00
2024-02-07T03:57:38.531Z,100.00
2024-02-07T04:00:15.189Z,100.00
2024-02-07T04:02:44.557Z,100.00
2024-02-07T04:05:12.568Z,100.00
2024-02-07T04:07:40.066Z,100.00
2024-02-07T04:10:10.848Z,100.00
2024-02-07T04:12:41.090Z,100.00
2024-02-07T04:15:26.969Z,100.00
2024-02-07T04:18:13.729Z,100.00
2024-02-07T04:21:09.028Z,100.00
2024-02-07T04:23:54.658Z,100.00
2024-02-07T04:26:42.945Z,100.00
2024-02-07T04:29:28.507Z,100.00
2024-02-07T04:32:14.054Z,100.00
2024-02-07T04:34:59.660Z,100.00
2024-02-07T04:37:45.882Z,100.00
2024-02-07T04:40:31.478Z,100.00
2024-02-07T04:43:16.790Z,100.00
2024-02-07T04:46:02.423Z,100.00
2024-02-07T04:48:48.483Z,100.00
2024-02-07T04:51:34.008Z,100.00
2024-02-07T04:54:19.730Z,100.00
2024-02-07T04:57:05.186Z,100.00
2024-02-07T04:59:50.883Z,100.00
2024-02-07T05:02:36.525Z,100.00
2024-02-07T05:05:22.174Z,100.00
2024-02-07T05:08:07.877Z,100.00
2024-02-07T05:10:53.565Z,100.00
2024-02-07T05:13:39.422Z,100.00
2024-02-07T05:16:11.629Z,100.00
2024-02-07T05:18:38.694Z,100.00
2024-02-07T05:21:05.776Z,100.00
2024-02-07T05:23:32.629Z,100.00
2024-02-07T05:26:00.017Z,100.00
2024-02-07T05:28:26.927Z,100.00
2024-02-07T05:30:53.780Z,100.00
2024-02-07T05:33:20.865Z,100.00
2024-02-07T05:35:47.838Z,100.00
2024-02-07T05:38:14.774Z,100.00
2024-02-07T05:40:41.673Z,100.00
2024-02-07T05:43:08.603Z,100.00
2024-02-07T05:45:35.576Z,100.00
2024-02-07T05:48:02.765Z,100.00
2024-02-07T05:50:30.447Z,100.00
2024-02-07T05:52:57.320Z,100.00
2024-02-07T05:55:24.310Z,100.00
2024-02-07T05:57:51.327Z,100.00
2024-02-07T06:00:18.538Z,100.00
2024-02-07T06:02:45.605Z,100.00
2024-02-07T06:05:12.829Z,100.00
2024-02-07T06:07:40.094Z,100.00
2024-02-07T06:10:07.674Z,100.00
2024-02-07T06:12:35.392Z,100.00
2024-02-07T06:15:03.667Z,100.00
2024-02-07T06:17:30.913Z,100.00
2024-02-07T06:19:58.029Z,100.00
2024-02-07T06:22:25.201Z,100.00
2024-02-07T06:24:52.154Z,100.00
2024-02-07T06:27:19.029Z,100.00
2024-02-07T06:29:46.008Z,100.00
2024-02-07T06:32:12.935Z,100.00
2024-02-07T06:34:40.077Z,100.00
2024-02-07T06:37:07.030Z,100.00
2024-02-07T06:39:34.158Z,100.00
2024-02-07T06:42:01.090Z,100.00
2024-02-07T06:44:28.074Z,100.00
2024-02-07T06:46:55.047Z,100.00
2024-02-07T06:49:22.113Z,100.00
2024-02-07T06:51:49.665Z,100.00
2024-02-07T06:54:16.670Z,100.00
2024-02-07T06:56:43.894Z,100.00
2024-02-07T06:59:13.034Z,100.00
2024-02-07T07:01:41.253Z,100.00
2024-02-07T07:04:08.200Z,100.00
2024-02-07T07:06:35.281Z,100.00
2024-02-07T07:09:02.514Z,100.00
2024-02-07T07:11:29.516Z,100.00
2024-02-07T07:14:00.209Z,100.00
2024-02-07T07:16:29.678Z,97.44
2024-02-07T07:18:58.672Z,98.67
2024-02-07T07:21:25.684Z,98.05
2024-02-07T07:23:52.956Z,95.18
2024-02-07T07:26:19.909Z,95.87
2024-02-07T07:28:46.865Z,96.48
2024-02-07T07:31:13.849Z,97.54
2024-02-07T07:33:40.728Z,99.36
2024-02-07T07:36:08.120Z,99.14
2024-02-07T07:38:35.034Z,96.15
2024-02-07T07:41:03.109Z,94.93
2024-02-07T07:43:30.386Z,97.33
2024-02-07T07:45:57.380Z,100.00
2024-02-07T07:48:24.915Z,100.00
2024-02-07T07:50:52.305Z,100.00
2024-02-07T07:53:19.242Z,100.00
2024-02-07T07:55:46.266Z,100.00
2024-02-07T07:58:13.349Z,100.00
2024-02-07T08:00:40.426Z,100.00
2024-02-07T08:03:07.320Z,100.00
2024-02-07T08:05:36.362Z,100.00
2024-02-07T08:08:05.276Z,100.00
2024-02-07T08:10:32.762Z,100.00
2024-02-07T08:12:59.961Z,100.00
2024-02-07T08:15:26.899Z,100.00
2024-02-07T08:17:53.804Z,95.98
2024-02-07T08:20:23.568Z,91.06
2024-02-07T08:22:51.023Z,85.18
2024-02-07T08:25:18.052Z,91.30
2024-02-07T08:27:45.005Z,96.48
2024-02-07T08:30:12.439Z,98.69
2024-02-07T08:32:39.935Z,100.00
2024-02-07T08:35:07.209Z,100.00
2024-02-07T08:37:34.213Z,100.00
2024-02-07T08:40:01.215Z,100.00
2024-02-07T08:42:28.320Z,100.00
2024-02-07T08:44:55.513Z,100.00
2024-02-07T08:47:22.726Z,100.00
2024-02-07T08:49:49.921Z,100.00
2024-02-07T08:52:17.386Z,100.00
2024-02-07T08:54:44.403Z,100.00
2024-02-07T08:57:11.847Z,100.00
2024-02-07T08:59:38.728Z,100.00
2024-02-07T09:02:07.807Z,100.00
2024-02-07T09:04:35.212Z,100.00
2024-02-07T09:07:02.354Z,100.00
2024-02-07T09:09:29.460Z,100.00
2024-02-07T09:11:56.335Z,100.00
2024-02-07T09:14:23.225Z,100.00
2024-02-07T09:16:50.194Z,100.00
2024-02-07T09:19:17.359Z,100.00
2024-02-07T09:21:45.221Z,100.00
2024-02-07T09:24:12.089Z,100.00
2024-02-07T09:26:39.645Z,100.00
2024-02-07T09:29:06.580Z,100.00
2024-02-07T09:31:33.491Z,100.00
2024-02-07T09:34:00.522Z,100.00
2024-02-07T09:36:28.263Z,100.00
2024-02-07T09:38:55.273Z,100.00
2024-02-07T09:41:22.862Z,100.00
2024-02-07T09:43:49.778Z,100.00
2024-02-07T09:46:17.052Z,100.00
2024-02-07T09:48:44.410Z,100.00
2024-02-07T09:51:16.136Z,100.00
2024-02-07T09:53:44.283Z,99.60
2024-02-07T09:56:11.319Z,99.32
2024-02-07T09:58:38.304Z,99.05
2024-02-07T10:01:08.133Z,98.13
2024-02-07T10:03:35.337Z,97.45
2024-02-07T10:06:02.362Z,97.60
2024-02-07T10:08:29.463Z,97.51
2024-02-07T10:10:56.689Z,97.59
2024-02-07T10:13:23.769Z,97.63
2024-02-07T10:15:52.480Z,97.26
2024-02-07T10:18:19.601Z,96.84
2024-02-07T10:20:56.294Z,96.77
2024-02-07T10:23:23.564Z,95.18
2024-02-07T10:25:51.734Z,92.18
2024-02-07T10:28:19.269Z,91.01
2024-02-07T10:31:06.812Z,90.00
2024-02-07T10:33:42.284Z,88.43
2024-02-07T10:36:12.011Z,87.39
2024-02-07T10:38:39.736Z,86.59
2024-02-07T10:41:07.262Z,86.33
2024-02-07T10:43:34.780Z,83.50
2024-02-07T10:46:02.437Z,75.98
2024-02-07T10:48:30.395Z,70.29
2024-02-07T10:50:58.542Z,65.46
2024-02-07T10:53:28.433Z,62.62
2024-02-07T10:55:58.068Z,59.64
2024-02-07T10:58:25.931Z,57.78
2024-02-07T11:00:53.377Z,55.77
2024-02-07T11:03:24.428Z,56.88
2024-02-07T11:05:51.665Z,58.42
2024-02-07T11:08:18.841Z,59.25
2024-02-07T11:10:46.165Z,58.63
2024-02-07T11:13:13.674Z,58.51
2024-02-07T11:15:40.807Z,58.71
2024-02-07T11:18:09.878Z,57.86
2024-02-07T11:20:37.984Z,59.32
2024-02-07T11:23:11.242Z,57.78
2024-02-07T11:25:38.213Z,56.41
2024-02-07T11:28:05.920Z,55.99
2024-02-07T11:30:33.040Z,54.15
2024-02-07T11:33:00.008Z,56.78
2024-02-07T11:35:27.348Z,57.84
2024-02-07T11:37:54.559Z,57.77
2024-02-07T11:40:25.249Z,59.15
2024-02-07T11:42:59.993Z,57.81
2024-02-07T11:45:27.507Z,57.29
2024-02-07T11:47:55.615Z,56.59
2024-02-07T11:50:22.881Z,55.21
2024-02-07T11:52:52.651Z,56.50
2024-02-07T11:55:19.636Z,59.17
2024-02-07T11:57:53.602Z,61.67
2024-02-07T12:00:22.437Z,60.05
2024-02-07T12:02:50.150Z,59.38
2024-02-07T12:05:17.877Z,59.90
2024-02-07T12:07:45.104Z,61.06
2024-02-07T12:10:12.259Z,61.06
2024-02-07T12:12:39.313Z,64.10
2024-02-07T12:15:06.732Z,65.96
2024-02-07T12:17:35.825Z,67.31
2024-02-07T12:20:03.808Z,68.67
2024-02-07T12:22:34.942Z,69.74
2024-02-07T12:25:04.048Z,70.44
2024-02-07T12:27:31.450Z,71.33
2024-02-07T12:29:58.829Z,71.96
2024-02-07T12:32:25.890Z,72.96
2024-02-07T12:34:56.945Z,73.54
2024-02-07T12:37:24.050Z,74.27
2024-02-07T12:39:51.824Z,75.12
2024-02-07T12:42:22.948Z,75.82
2024-02-07T12:44:52.789Z,76.21
2024-02-07T12:47:22.376Z,76.52
2024-02-07T12:49:52.943Z,76.79
2024-02-07T12:52:21.370Z,77.73
2024-02-07T12:54:48.634Z,78.41
2024-02-07T12:57:25.501Z,78.65
2024-02-07T12:59:52.996Z,77.82
2024-02-07T13:02:20.106Z,78.46
2024-02-07T13:04:47.447Z,78.04
2024-02-07T13:07:14.551Z,76.80
2024-02-07T13:09:41.766Z,75.38
2024-02-07T13:12:18.581Z,75.05
2024-02-07T13:14:51.516Z,74.04
2024-02-07T13:17:18.395Z,73.31
2024-02-07T13:19:45.350Z,73.50
2024-02-07T13:22:15.587Z,74.02
2024-02-07T13:24:43.193Z,73.80
2024-02-07T13:27:10.245Z,74.02
2024-02-07T13:29:40.962Z,73.95
2024-02-07T13:32:11.956Z,73.44
2024-02-07T13:34:39.452Z,74.13
2024-02-07T13:37:06.565Z,74.10
2024-02-07T13:39:33.611Z,73.82
2024-02-07T13:42:00.680Z,73.65
2024-02-07T13:44:27.557Z,73.47
2024-02-07T13:46:54.801Z,73.70
2024-02-07T13:49:23.792Z,74.06
2024-02-07T13:51:50.974Z,74.88
2024-02-07T13:54:18.032Z,75.53
2024-02-07T13:56:44.931Z,75.71
2024-02-07T13:59:12.249Z,76.01
2024-02-07T14:01:40.181Z,76.17
2024-02-07T14:04:07.201Z,76.42
2024-02-07T14:06:34.436Z,75.44
2024-02-07T14:09:01.449Z,75.46
2024-02-07T14:11:28.379Z,75.49
2024-02-07T14:13:55.498Z,75.69
2024-02-07T14:16:22.557Z,76.08
2024-02-07T14:18:49.567Z,75.97
2024-02-07T14:21:16.685Z,76.57
2024-02-07T14:23:43.625Z,76.54
2024-02-07T14:26:10.709Z,76.79
2024-02-07T14:28:37.673Z,77.00
2024-02-07T14:31:04.777Z,77.44
2024-02-07T14:33:31.834Z,78.33
2024-02-07T14:35:58.989Z,79.47
2024-02-07T14:38:29.345Z,80.03
2024-02-07T14:40:56.693Z,80.89
2024-02-07T14:43:23.806Z,81.05
2024-02-07T14:45:54.112Z,81.30
2024-02-07T14:48:21.464Z,81.53
2024-02-07T14:50:48.711Z,81.93
2024-02-07T14:53:15.818Z,81.90
2024-02-07T14:55:45.034Z,82.45
2024-02-07T14:58:12.115Z,83.13
2024-02-07T15:00:40.005Z,83.35
2024-02-07T15:03:12.521Z,84.49
2024-02-07T15:05:39.769Z,84.94
2024-02-07T15:08:10.158Z,85.60
2024-02-07T15:10:37.583Z,85.69
2024-02-07T15:13:04.975Z,86.19
2024-02-07T15:15:32.082Z,86.90
2024-02-07T15:17:59.164Z,87.48
2024-02-07T15:20:26.350Z,87.64
2024-02-07T15:22:53.421Z,88.66
2024-02-07T15:25:20.565Z,89.34
2024-02-07T15:27:47.569Z,89.84
2024-02-07T15:30:14.959Z,90.21
2024-02-07T15:32:42.235Z,90.79
2024-02-07T15:35:10.133Z,91.12
2024-02-07T15:37:37.263Z,91.78
2024-02-07T15:40:04.567Z,92.21
2024-02-07T15:42:32.033Z,92.35
2024-02-07T15:44:59.070Z,92.75
2024-02-07T15:47:26.230Z,92.73
2024-02-07T15:49:53.378Z,93.20
2024-02-07T15:52:20.482Z,93.38
2024-02-07T15:54:48.849Z,93.74
2024-02-07T15:57:16.060Z,93.72
2024-02-07T15:59:43.266Z,93.95
2024-02-07T16:02:10.418Z,94.35
2024-02-07T16:04:37.481Z,94.59
2024-02-07T16:07:04.828Z,94.66
2024-02-07T16:09:31.953Z,95.15
2024-02-07T16:11:58.950Z,95.50
2024-02-07T16:14:25.930Z,95.58
2024-02-07T16:16:52.957Z,96.22
2024-02-07T16:19:20.040Z,96.57
2024-02-07T16:21:47.094Z,96.66
2024-02-07T16:24:14.048Z,97.31
2024-02-07T16:26:41.157Z,97.91
2024-02-07T16:29:08.229Z,98.34
2024-02-07T16:31:35.315Z,98.57
2024-02-07T16:34:02.518Z,99.00
2024-02-07T16:36:29.934Z,99.61
2024-02-07T16:38:57.001Z,99.47
2024-02-07T16:41:24.033Z,99.84
2024-02-07T16:43:52.549Z,100.00
2024-02-07T16:46:19.633Z,100.00
2024-02-07T16:48:46.721Z,100.00
2024-02-07T16:51:13.809Z,100.00
2024-02-07T16:53:42.258Z,100.00
2024-02-07T16:56:09.481Z,100.00
2024-02-07T16:58:36.592Z,100.00
2024-02-07T17:01:04.013Z,100.00
2024-02-07T17:03:31.881Z,100.00
2024-02-07T17:05:59.265Z,100.00
2024-02-07T17:08:30.615Z,100.00
2024-02-07T17:10:58.151Z,100.00
2024-02-07T17:13:25.118Z,100.00
2024-02-07T17:15:52.102Z,100.00
2024-02-07T17:18:19.268Z,100.00
2024-02-07T17:20:51.403Z,100.00
2024-02-07T17:23:19.103Z,100.00
2024-02-07T17:25:46.641Z,100.00
2024-02-07T17:28:14.940Z,100.00
2024-02-07T17:30:43.006Z,100.00
2024-02-07T17:33:10.186Z,100.00
2024-02-07T17:35:37.334Z,100.00
2024-02-07T17:38:04.759Z,100.00
2024-02-07T17:40:31.862Z,100.00
2024-02-07T17:42:58.886Z,100.00
2024-02-07T17:45:26.853Z,100.00
2024-02-07T17:47:53.920Z,100.00
2024-02-07T17:50:29.031Z,100.00
2024-02-07T17:52:56.656Z,100.00
2024-02-07T17:55:23.904Z,100.00
2024-02-07T17:57:51.687Z,100.00
2024-02-07T18:00:19.114Z,100.00
2024-02-07T18:02:47.322Z,100.00
2024-02-07T18:05:14.420Z,100.00
2024-02-07T18:07:41.706Z,100.00
2024-02-07T18:10:09.107Z,100.00
2024-02-07T18:12:36.221Z,100.00
2024-02-07T18:15:03.241Z,100.00
2024-02-07T18:17:30.414Z,100.00
2024-02-07T18:19:57.638Z,100.00
2024-02-07T18:22:24.619Z,100.00
2024-02-07T18:24:51.663Z,100.00
2024-02-07T18:27:18.582Z,100.00
2024-02-07T18:29:45.510Z,100.00
2024-02-07T18:32:13.456Z,100.00
2024-02-07T18:34:40.932Z,100.00
2024-02-07T18:37:09.502Z,100.00
2024-02-07T18:39:36.730Z,100.00
2024-02-07T18:42:03.946Z,100.00
2024-02-07T18:44:31.111Z,100.00
2024-02-07T18:46:58.266Z,100.00
2024-02-07T18:49:25.417Z,100.00
2024-02-07T18:51:52.635Z,100.00
2024-02-07T18:54:22.617Z,100.00
2024-02-07T18:56:49.576Z,100.00
2024-02-07T18:59:16.546Z,100.00
2024-02-07T19:01:43.914Z,100.00
2024-02-07T19:04:11.066Z,100.00
2024-02-07T19:06:38.096Z,100.00
2024-02-07T19:09:05.375Z,100.00
2024-02-07T19:11:32.384Z,100.00
2024-02-07T19:13:59.585Z,100.00
2024-02-07T19:16:28.597Z,100.00
2024-02-07T19:18:55.667Z,99.77
2024-02-07T19:21:24.514Z,99.39
2024-02-07T19:23:51.447Z,99.35
2024-02-07T19:26:18.465Z,98.84
2024-02-07T19:28:45.538Z,98.74
2024-02-07T19:31:12.583Z,98.79
2024-02-07T19:33:39.733Z,98.31
2024-02-07T19:36:07.112Z,98.31
2024-02-07T19:38:34.185Z,98.14
2024-02-07T19:41:01.362Z,97.93
2024-02-07T19:43:28.364Z,97.93
2024-02-07T19:45:56.436Z,97.28
2024-02-07T19:48:23.448Z,96.88
2024-02-07T19:50:50.469Z,96.37
2024-02-07T19:53:17.461Z,95.35
2024-02-07T19:55:44.490Z,95.09
2024-02-07T19:58:15.373Z,95.46
2024-02-07T20:00:42.781Z,95.71
2024-02-07T20:03:10.038Z,95.18
2024-02-07T20:05:37.424Z,95.25
2024-02-07T20:08:05.426Z,95.57
2024-02-07T20:10:32.688Z,95.37
2024-02-07T20:12:59.864Z,95.50
2024-02-07T20:15:26.867Z,95.50
2024-02-07T20:17:54.218Z,95.46
2024-02-07T20:20:21.537Z,95.37
2024-02-07T20:22:48.643Z,95.63
2024-02-07T20:25:16.517Z,95.57
2024-02-07T20:27:43.415Z,95.95
2024-02-07T20:30:10.591Z,96.00
2024-02-07T20:32:37.900Z,95.64
2024-02-07T20:35:05.300Z,95.74
2024-02-07T20:37:32.493Z,95.81
2024-02-07T20:39:59.434Z,95.65
2024-02-07T20:42:29.882Z,95.27
2024-02-07T20:44:58.420Z,95.63
2024-02-07T20:47:25.508Z,95.48
2024-02-07T20:49:52.730Z,95.51
2024-02-07T20:52:20.180Z,95.35
2024-02-07T20:54:50.103Z,95.64
2024-02-07T20:57:17.537Z,96.00
2024-02-07T20:59:44.824Z,96.13
2024-02-07T21:02:11.869Z,96.54
2024-02-07T21:04:39.457Z,96.55
2024-02-07T21:07:06.716Z,96.62
2024-02-07T21:09:34.041Z,96.71
2024-02-07T21:12:01.077Z,97.00
2024-02-07T21:14:32.804Z,96.55
2024-02-07T21:16:59.788Z,96.77
2024-02-07T21:19:30.171Z,97.11
2024-02-07T21:21:57.665Z,97.32
2024-02-07T21:24:24.614Z,97.29
2024-02-07T21:26:51.511Z,97.85
2024-02-07T21:29:18.673Z,98.05
2024-02-07T21:31:45.749Z,98.21
2024-02-07T21:34:12.803Z,98.18
2024-02-07T21:36:39.722Z,98.29
2024-02-07T21:39:06.547Z,99.11
2024-02-07T21:41:33.554Z,100.00
2024-02-07T21:44:00.836Z,100.00
2024-02-07T21:46:29.621Z,100.00
2024-02-07T21:48:56.626Z,100.00
2024-02-07T21:51:23.511Z,100.00
2024-02-07T21:53:50.448Z,100.00
2024-02-07T21:56:17.506Z,100.00
2024-02-07T21:58:44.529Z,100.00
2024-02-07T22:01:11.575Z,100.00
2024-02-07T22:03:38.595Z,100.00
2024-02-07T22:06:05.620Z,100.00
2024-02-07T22:08:32.726Z,100.00
2024-02-07T22:10:59.827Z,100.00
2024-02-07T22:13:26.731Z,100.00
2024-02-07T22:15:53.743Z,100.00
2024-02-07T22:18:20.691Z,100.00
2024-02-07T22:20:47.646Z,100.00
2024-02-07T22:23:14.669Z,100.00
2024-02-07T22:25:41.659Z,100.00
2024-02-07T22:28:08.684Z,100.00
2024-02-07T22:30:35.515Z,100.00
2024-02-07T22:33:04.762Z,100.00
2024-02-07T22:35:31.734Z,100.00
2024-02-07T22:37:58.609Z,100.00
2024-02-07T22:40:25.619Z,100.00
2024-02-07T22:42:52.560Z,100.00
2024-02-07T22:45:26.431Z,100.00
2024-02-07T22:47:54.047Z,100.00
2024-02-07T22:50:21.152Z,100.00
2024-02-07T22:52:48.072Z,100.00
2024-02-07T22:55:15.008Z,100.00
2024-02-07T22:57:41.972Z,100.00
2024-02-07T23:00:22.706Z,100.00
2024-02-07T23:02:49.767Z,100.00
2024-02-07T23:05:16.879Z,100.00
2024-02-07T23:07:43.889Z,100.00
2024-02-07T23:10:10.779Z,100.00
2024-02-07T23:12:38.199Z,100.00
2024-02-07T23:15:05.684Z,100.00
2024-02-07T23:17:33.816Z,100.00
2024-02-07T23:20:00.958Z,100.00
2024-02-07T23:22:27.942Z,100.00
2024-02-07T23:24:54.830Z,100.00
2024-02-07T23:27:21.833Z,100.00
2024-02-07T23:29:48.755Z,100.00
2024-02-07T23:32:15.756Z,100.00
2024-02-07T23:34:42.781Z,100.00
2024-02-07T23:37:10.894Z,100.00
2024-02-07T23:39:37.934Z,100.00
2024-02-07T23:42:05.168Z,100.00
2024-02-07T23:44:35.020Z,100.00
2024-02-07T23:47:02.497Z,100.00
2024-02-07T23:49:29.789Z,100.00
2024-02-07T23:51:56.802Z,100.00
2024-02-07T23:54:23.839Z,100.00
2024-02-07T23:56:50.878Z,100.00
2024-02-07T23:59:17.817Z,100.00
